sensor_id;sensor_type;location;lat;lon;timestamp;P1;durP1;ratioP1;P2;durP2;ratioP2
47251;SDS011;32991;51.374;11.586;2022-08-25T00:01:54;835.95;;;571.15;;
47251;SDS011;32991;51.374;11.586;2022-08-25T00:04:23;888.15;;;574.88;;
47251;SDS011;32991;51.374;11.586;2022-08-25T00:06:51;902.63;;;576.30;;
47251;SDS011;32991;51.374;11.586;2022-08-25T00:09:27;913.10;;;571.10;;
47251;SDS011;32991;51.374;11.586;2022-08-25T00:11:54;912.15;;;563.70;;
47251;SDS011;32991;51.374;11.586;2022-08-25T00:14:23;920.70;;;545.70;;
47251;SDS011;32991;51.374;11.586;2022-08-25T00:17:03;903.78;;;576.00;;
47251;SDS011;32991;51.374;11.586;2022-08-25T00:19:31;924.55;;;582.70;;
47251;SDS011;32991;51.374;11.586;2022-08-25T00:22:00;899.95;;;572.58;;
47251;SDS011;32991;51.374;11.586;2022-08-25T00:24:28;915.40;;;562.35;;
47251;SDS011;32991;51.374;11.586;2022-08-25T00:26:56;922.13;;;573.95;;
47251;SDS011;32991;51.374;11.586;2022-08-25T00:29:24;896.97;;;560.28;;
47251;SDS011;32991;51.374;11.586;2022-08-25T00:31:52;922.25;;;582.78;;
47251;SDS011;32991;51.374;11.586;2022-08-25T00:34:21;903.95;;;566.95;;
47251;SDS011;32991;51.374;11.586;2022-08-25T00:36:51;942.83;;;545.75;;
47251;SDS011;32991;51.374;11.586;2022-08-25T00:39:19;915.60;;;551.75;;
47251;SDS011;32991;51.374;11.586;2022-08-25T00:41:48;889.20;;;555.80;;
47251;SDS011;32991;51.374;11.586;2022-08-25T00:44:16;912.83;;;540.40;;
47251;SDS011;32991;51.374;11.586;2022-08-25T00:46:46;948.60;;;573.80;;
47251;SDS011;32991;51.374;11.586;2022-08-25T00:49:19;941.47;;;588.70;;
47251;SDS011;32991;51.374;11.586;2022-08-25T00:54:34;949.47;;;579.30;;
47251;SDS011;32991;51.374;11.586;2022-08-25T00:57:05;953.58;;;548.80;;
47251;SDS011;32991;51.374;11.586;2022-08-25T00:59:34;915.45;;;593.30;;
47251;SDS011;32991;51.374;11.586;2022-08-25T01:02:02;947.10;;;569.58;;
47251;SDS011;32991;51.374;11.586;2022-08-25T01:04:33;930.47;;;609.33;;
47251;SDS011;32991;51.374;11.586;2022-08-25T01:07:00;897.45;;;579.90;;
47251;SDS011;32991;51.374;11.586;2022-08-25T01:09:28;946.10;;;558.10;;
47251;SDS011;32991;51.374;11.586;2022-08-25T01:11:58;937.42;;;539.85;;
47251;SDS011;32991;51.374;11.586;2022-08-25T01:14:25;975.42;;;548.60;;
47251;SDS011;32991;51.374;11.586;2022-08-25T01:16:56;934.15;;;565.38;;
47251;SDS011;32991;51.374;11.586;2022-08-25T01:19:25;927.47;;;556.42;;
47251;SDS011;32991;51.374;11.586;2022-08-25T01:21:54;988.80;;;586.50;;
47251;SDS011;32991;51.374;11.586;2022-08-25T01:27:08;943.75;;;581.58;;
47251;SDS011;32991;51.374;11.586;2022-08-25T01:29:36;986.20;;;581.13;;
47251;SDS011;32991;51.374;11.586;2022-08-25T01:32:05;953.15;;;569.95;;
47251;SDS011;32991;51.374;11.586;2022-08-25T01:34:37;967.13;;;566.35;;
47251;SDS011;32991;51.374;11.586;2022-08-25T01:37:06;940.50;;;561.33;;
47251;SDS011;32991;51.374;11.586;2022-08-25T01:39:38;933.63;;;593.75;;
47251;SDS011;32991;51.374;11.586;2022-08-25T01:44:35;902.50;;;571.70;;
47251;SDS011;32991;51.374;11.586;2022-08-25T01:47:04;1044.75;;;576.42;;
47251;SDS011;32991;51.374;11.586;2022-08-25T01:49:32;977.63;;;552.40;;
47251;SDS011;32991;51.374;11.586;2022-08-25T01:52:23;955.15;;;613.15;;
47251;SDS011;32991;51.374;11.586;2022-08-25T01:54:50;956.92;;;546.85;;
47251;SDS011;32991;51.374;11.586;2022-08-25T01:57:17;980.47;;;604.75;;
47251;SDS011;32991;51.374;11.586;2022-08-25T01:59:44;1036.47;;;585.10;;
47251;SDS011;32991;51.374;11.586;2022-08-25T02:02:11;978.90;;;578.92;;
47251;SDS011;32991;51.374;11.586;2022-08-25T02:08:53;1037.07;;;595.33;;
47251;SDS011;32991;51.374;11.586;2022-08-25T02:11:24;966.08;;;591.08;;
47251;SDS011;32991;51.374;11.586;2022-08-25T02:13:51;1044.90;;;622.75;;
47251;SDS011;32991;51.374;11.586;2022-08-25T02:16:28;994.08;;;627.80;;
47251;SDS011;32991;51.374;11.586;2022-08-25T02:18:56;993.47;;;606.22;;
47251;SDS011;32991;51.374;11.586;2022-08-25T02:21:25;1017.70;;;595.92;;
47251;SDS011;32991;51.374;11.586;2022-08-25T02:23:52;1012.55;;;598.45;;
47251;SDS011;32991;51.374;11.586;2022-08-25T02:26:19;1093.13;;;568.30;;
47251;SDS011;32991;51.374;11.586;2022-08-25T02:28:46;1018.08;;;578.92;;
47251;SDS011;32991;51.374;11.586;2022-08-25T02:31:14;1047.05;;;563.47;;
47251;SDS011;32991;51.374;11.586;2022-08-25T02:33:43;990.25;;;556.58;;
47251;SDS011;32991;51.374;11.586;2022-08-25T02:36:09;1024.30;;;616.38;;
47251;SDS011;32991;51.374;11.586;2022-08-25T02:38:37;1063.32;;;589.80;;
47251;SDS011;32991;51.374;11.586;2022-08-25T02:41:12;1073.47;;;606.90;;
47251;SDS011;32991;51.374;11.586;2022-08-25T02:43:41;1058.07;;;584.25;;
47251;SDS011;32991;51.374;11.586;2022-08-25T02:46:09;992.45;;;576.83;;
47251;SDS011;32991;51.374;11.586;2022-08-25T02:48:38;988.47;;;611.40;;
47251;SDS011;32991;51.374;11.586;2022-08-25T02:51:05;1050.10;;;580.40;;
47251;SDS011;32991;51.374;11.586;2022-08-25T02:53:36;1067.60;;;590.25;;
47251;SDS011;32991;51.374;11.586;2022-08-25T02:56:06;1020.35;;;591.67;;
47251;SDS011;32991;51.374;11.586;2022-08-25T02:58:35;1075.50;;;587.03;;
47251;SDS011;32991;51.374;11.586;2022-08-25T03:01:03;1019.58;;;576.33;;
47251;SDS011;32991;51.374;11.586;2022-08-25T03:03:32;1103.10;;;602.92;;
47251;SDS011;32991;51.374;11.586;2022-08-25T03:06:08;1031.35;;;576.10;;
47251;SDS011;32991;51.374;11.586;2022-08-25T03:08:35;1062.85;;;603.92;;
47251;SDS011;32991;51.374;11.586;2022-08-25T03:11:03;1079.68;;;620.30;;
47251;SDS011;32991;51.374;11.586;2022-08-25T03:13:31;1021.22;;;641.78;;
47251;SDS011;32991;51.374;11.586;2022-08-25T03:15:58;1084.43;;;567.10;;
47251;SDS011;32991;51.374;11.586;2022-08-25T03:18:28;1047.90;;;622.22;;
47251;SDS011;32991;51.374;11.586;2022-08-25T03:20:56;1109.75;;;579.25;;
47251;SDS011;32991;51.374;11.586;2022-08-25T03:23:23;1092.95;;;610.03;;
47251;SDS011;32991;51.374;11.586;2022-08-25T03:25:52;1105.18;;;607.80;;
47251;SDS011;32991;51.374;11.586;2022-08-25T03:28:38;1010.92;;;607.53;;
47251;SDS011;32991;51.374;11.586;2022-08-25T03:31:07;1058.78;;;619.72;;
47251;SDS011;32991;51.374;11.586;2022-08-25T03:33:35;1040.68;;;595.85;;
47251;SDS011;32991;51.374;11.586;2022-08-25T03:36:04;1053.10;;;615.45;;
47251;SDS011;32991;51.374;11.586;2022-08-25T03:38:32;1048.97;;;604.67;;
47251;SDS011;32991;51.374;11.586;2022-08-25T03:40:59;1064.30;;;608.90;;
47251;SDS011;32991;51.374;11.586;2022-08-25T03:43:27;1102.00;;;608.92;;
47251;SDS011;32991;51.374;11.586;2022-08-25T03:45:54;1051.05;;;618.20;;
47251;SDS011;32991;51.374;11.586;2022-08-25T03:48:21;1091.13;;;604.67;;
47251;SDS011;32991;51.374;11.586;2022-08-25T03:50:48;1018.90;;;638.20;;
47251;SDS011;32991;51.374;11.586;2022-08-25T03:53:18;1132.70;;;592.60;;
47251;SDS011;32991;51.374;11.586;2022-08-25T03:55:45;1060.38;;;607.72;;
47251;SDS011;32991;51.374;11.586;2022-08-25T03:58:13;1116.93;;;624.13;;
47251;SDS011;32991;51.374;11.586;2022-08-25T04:00:40;1106.93;;;606.67;;
47251;SDS011;32991;51.374;11.586;2022-08-25T04:03:07;1026.93;;;605.42;;
47251;SDS011;32991;51.374;11.586;2022-08-25T04:05:34;1092.07;;;609.65;;
47251;SDS011;32991;51.374;11.586;2022-08-25T04:08:01;1080.28;;;610.72;;
47251;SDS011;32991;51.374;11.586;2022-08-25T04:10:28;1117.00;;;623.47;;
47251;SDS011;32991;51.374;11.586;2022-08-25T04:12:56;1081.72;;;587.00;;
47251;SDS011;32991;51.374;11.586;2022-08-25T04:15:23;1125.68;;;608.90;;
47251;SDS011;32991;51.374;11.586;2022-08-25T04:17:55;1163.25;;;622.78;;
47251;SDS011;32991;51.374;11.586;2022-08-25T04:20:24;1082.05;;;591.50;;
47251;SDS011;32991;51.374;11.586;2022-08-25T04:22:51;1091.38;;;628.70;;
47251;SDS011;32991;51.374;11.586;2022-08-25T04:25:18;1133.40;;;598.40;;
47251;SDS011;32991;51.374;11.586;2022-08-25T04:27:45;1080.82;;;619.80;;
47251;SDS011;32991;51.374;11.586;2022-08-25T04:30:12;1166.38;;;621.10;;
47251;SDS011;32991;51.374;11.586;2022-08-25T04:32:39;1082.10;;;601.85;;
47251;SDS011;32991;51.374;11.586;2022-08-25T04:35:06;1155.10;;;607.63;;
47251;SDS011;32991;51.374;11.586;2022-08-25T04:37:34;1159.18;;;597.40;;
47251;SDS011;32991;51.374;11.586;2022-08-25T04:40:01;1047.50;;;623.08;;
47251;SDS011;32991;51.374;11.586;2022-08-25T04:42:28;1106.85;;;632.88;;
47251;SDS011;32991;51.374;11.586;2022-08-25T04:44:55;1100.53;;;595.70;;
47251;SDS011;32991;51.374;11.586;2022-08-25T04:47:22;1104.13;;;609.92;;
47251;SDS011;32991;51.374;11.586;2022-08-25T04:49:49;1081.43;;;608.30;;
47251;SDS011;32991;51.374;11.586;2022-08-25T04:52:16;1117.03;;;602.63;;
47251;SDS011;32991;51.374;11.586;2022-08-25T04:54:42;1085.13;;;620.78;;
47251;SDS011;32991;51.374;11.586;2022-08-25T04:57:10;1061.78;;;568.70;;
47251;SDS011;32991;51.374;11.586;2022-08-25T04:59:37;1047.28;;;584.38;;
47251;SDS011;32991;51.374;11.586;2022-08-25T05:02:04;1115.78;;;606.72;;
47251;SDS011;32991;51.374;11.586;2022-08-25T05:04:33;1016.30;;;586.00;;
47251;SDS011;32991;51.374;11.586;2022-08-25T05:07:01;969.35;;;575.03;;
47251;SDS011;32991;51.374;11.586;2022-08-25T05:09:28;988.95;;;594.85;;
47251;SDS011;32991;51.374;11.586;2022-08-25T05:11:58;978.30;;;602.25;;
47251;SDS011;32991;51.374;11.586;2022-08-25T05:14:25;915.28;;;570.78;;
47251;SDS011;32991;51.374;11.586;2022-08-25T05:16:56;941.35;;;574.97;;
47251;SDS011;32991;51.374;11.586;2022-08-25T05:19:23;894.13;;;600.00;;
47251;SDS011;32991;51.374;11.586;2022-08-25T05:21:51;893.88;;;559.05;;
47251;SDS011;32991;51.374;11.586;2022-08-25T05:24:19;895.97;;;558.22;;
47251;SDS011;32991;51.374;11.586;2022-08-25T05:26:47;878.90;;;548.00;;
47251;SDS011;32991;51.374;11.586;2022-08-25T05:29:14;881.08;;;569.42;;
47251;SDS011;32991;51.374;11.586;2022-08-25T05:31:41;829.92;;;554.67;;
47251;SDS011;32991;51.374;11.586;2022-08-25T05:34:15;802.45;;;547.15;;
47251;SDS011;32991;51.374;11.586;2022-08-25T05:36:44;791.25;;;530.15;;
47251;SDS011;32991;51.374;11.586;2022-08-25T05:39:11;818.17;;;543.05;;
47251;SDS011;32991;51.374;11.586;2022-08-25T05:41:38;763.47;;;513.20;;
47251;SDS011;32991;51.374;11.586;2022-08-25T05:44:06;780.50;;;562.80;;
47251;SDS011;32991;51.374;11.586;2022-08-25T05:46:33;746.65;;;507.17;;
47251;SDS011;32991;51.374;11.586;2022-08-25T05:49:00;736.85;;;526.00;;
47251;SDS011;32991;51.374;11.586;2022-08-25T05:51:27;708.80;;;518.88;;
47251;SDS011;32991;51.374;11.586;2022-08-25T05:53:54;683.42;;;514.15;;
47251;SDS011;32991;51.374;11.586;2022-08-25T05:56:20;639.40;;;503.63;;
47251;SDS011;32991;51.374;11.586;2022-08-25T05:58:48;698.78;;;505.30;;
47251;SDS011;32991;51.374;11.586;2022-08-25T06:01:23;651.60;;;510.73;;
47251;SDS011;32991;51.374;11.586;2022-08-25T06:04:11;693.03;;;529.28;;
47251;SDS011;32991;51.374;11.586;2022-08-25T06:06:38;665.72;;;514.00;;
47251;SDS011;32991;51.374;11.586;2022-08-25T06:09:05;729.47;;;515.45;;
47251;SDS011;32991;51.374;11.586;2022-08-25T06:11:35;734.13;;;530.03;;
47251;SDS011;32991;51.374;11.586;2022-08-25T06:14:06;783.35;;;497.67;;
47251;SDS011;32991;51.374;11.586;2022-08-25T06:16:34;830.25;;;532.80;;
47251;SDS011;32991;51.374;11.586;2022-08-25T06:19:01;791.45;;;543.88;;
47251;SDS011;32991;51.374;11.586;2022-08-25T06:21:28;764.70;;;531.60;;
47251;SDS011;32991;51.374;11.586;2022-08-25T06:23:55;781.05;;;557.25;;
47251;SDS011;32991;51.374;11.586;2022-08-25T06:26:22;740.38;;;551.17;;
47251;SDS011;32991;51.374;11.586;2022-08-25T06:28:49;725.83;;;543.63;;
47251;SDS011;32991;51.374;11.586;2022-08-25T06:31:17;690.40;;;519.30;;
47251;SDS011;32991;51.374;11.586;2022-08-25T06:33:45;704.00;;;501.27;;
47251;SDS011;32991;51.374;11.586;2022-08-25T06:36:13;616.83;;;500.35;;
47251;SDS011;32991;51.374;11.586;2022-08-25T06:38:40;590.63;;;469.08;;
47251;SDS011;32991;51.374;11.586;2022-08-25T06:41:07;559.20;;;465.23;;
47251;SDS011;32991;51.374;11.586;2022-08-25T06:43:36;572.70;;;470.00;;
47251;SDS011;32991;51.374;11.586;2022-08-25T06:46:09;526.08;;;448.10;;
47251;SDS011;32991;51.374;11.586;2022-08-25T06:48:38;492.92;;;439.05;;
47251;SDS011;32991;51.374;11.586;2022-08-25T06:51:06;483.10;;;431.33;;
47251;SDS011;32991;51.374;11.586;2022-08-25T06:56:05;461.98;;;410.02;;
47251;SDS011;32991;51.374;11.586;2022-08-25T06:58:32;468.75;;;418.42;;
47251;SDS011;32991;51.374;11.586;2022-08-25T07:03:58;448.75;;;400.70;;
47251;SDS011;32991;51.374;11.586;2022-08-25T07:06:26;435.00;;;387.63;;
47251;SDS011;32991;51.374;11.586;2022-08-25T07:08:54;456.02;;;407.13;;
47251;SDS011;32991;51.374;11.586;2022-08-25T07:11:21;451.00;;;401.88;;
47251;SDS011;32991;51.374;11.586;2022-08-25T07:13:48;465.67;;;416.35;;
47251;SDS011;32991;51.374;11.586;2022-08-25T07:16:16;455.08;;;407.30;;
47251;SDS011;32991;51.374;11.586;2022-08-25T07:18:46;454.08;;;385.08;;
47251;SDS011;32991;51.374;11.586;2022-08-25T07:21:14;436.15;;;382.00;;
47251;SDS011;32991;51.374;11.586;2022-08-25T07:23:45;429.95;;;382.60;;
47251;SDS011;32991;51.374;11.586;2022-08-25T07:26:14;424.38;;;377.95;;
47251;SDS011;32991;51.374;11.586;2022-08-25T07:29:05;441.10;;;396.55;;
47251;SDS011;32991;51.374;11.586;2022-08-25T07:31:37;428.40;;;383.02;;
47251;SDS011;32991;51.374;11.586;2022-08-25T07:34:05;429.33;;;383.75;;
47251;SDS011;32991;51.374;11.586;2022-08-25T07:36:52;419.40;;;376.30;;
47251;SDS011;32991;51.374;11.586;2022-08-25T07:39:20;393.63;;;352.80;;
47251;SDS011;32991;51.374;11.586;2022-08-25T07:41:48;395.02;;;355.48;;
47251;SDS011;32991;51.374;11.586;2022-08-25T07:44:18;350.63;;;315.30;;
47251;SDS011;32991;51.374;11.586;2022-08-25T07:46:46;358.52;;;319.17;;
47251;SDS011;32991;51.374;11.586;2022-08-25T07:49:15;342.70;;;310.05;;
47251;SDS011;32991;51.374;11.586;2022-08-25T07:51:48;331.85;;;299.52;;
47251;SDS011;32991;51.374;11.586;2022-08-25T07:54:31;329.30;;;296.42;;
47251;SDS011;32991;51.374;11.586;2022-08-25T07:57:01;305.35;;;276.27;;
47251;SDS011;32991;51.374;11.586;2022-08-25T07:59:30;312.30;;;282.63;;
47251;SDS011;32991;51.374;11.586;2022-08-25T08:02:06;326.00;;;296.00;;
47251;SDS011;32991;51.374;11.586;2022-08-25T08:04:46;322.80;;;289.83;;
47251;SDS011;32991;51.374;11.586;2022-08-25T08:07:19;316.83;;;286.50;;
47251;SDS011;32991;51.374;11.586;2022-08-25T08:10:03;361.25;;;325.38;;
47251;SDS011;32991;51.374;11.586;2022-08-25T08:12:52;405.33;;;364.08;;
47251;SDS011;32991;51.374;11.586;2022-08-25T08:15:19;422.58;;;377.45;;
47251;SDS011;32991;51.374;11.586;2022-08-25T08:17:47;424.35;;;377.38;;
47251;SDS011;32991;51.374;11.586;2022-08-25T08:20:15;469.33;;;420.80;;
47251;SDS011;32991;51.374;11.586;2022-08-25T08:25:15;448.90;;;395.10;;
47251;SDS011;32991;51.374;11.586;2022-08-25T08:27:49;461.77;;;400.73;;
47251;SDS011;32991;51.374;11.586;2022-08-25T08:30:20;451.15;;;401.83;;
47251;SDS011;32991;51.374;11.586;2022-08-25T08:32:52;492.17;;;408.60;;
47251;SDS011;32991;51.374;11.586;2022-08-25T08:35:35;514.67;;;433.90;;
47251;SDS011;32991;51.374;11.586;2022-08-25T08:38:02;544.47;;;419.52;;
47251;SDS011;32991;51.374;11.586;2022-08-25T08:40:37;520.40;;;432.70;;
47251;SDS011;32991;51.374;11.586;2022-08-25T08:43:33;588.00;;;477.35;;
47251;SDS011;32991;51.374;11.586;2022-08-25T08:46:00;557.38;;;430.77;;
47251;SDS011;32991;51.374;11.586;2022-08-25T08:48:37;602.15;;;471.23;;
47251;SDS011;32991;51.374;11.586;2022-08-25T08:51:15;639.95;;;481.30;;
47251;SDS011;32991;51.374;11.586;2022-08-25T08:56:28;631.38;;;486.77;;
47251;SDS011;32991;51.374;11.586;2022-08-25T08:59:10;694.55;;;500.60;;
47251;SDS011;32991;51.374;11.586;2022-08-25T09:02:03;650.13;;;482.10;;
47251;SDS011;32991;51.374;11.586;2022-08-25T09:04:58;610.97;;;476.77;;
47251;SDS011;32991;51.374;11.586;2022-08-25T09:07:30;589.15;;;471.25;;
47251;SDS011;32991;51.374;11.586;2022-08-25T09:10:07;568.50;;;456.73;;
47251;SDS011;32991;51.374;11.586;2022-08-25T09:12:38;518.42;;;448.02;;
47251;SDS011;32991;51.374;11.586;2022-08-25T09:15:27;485.10;;;427.70;;
47251;SDS011;32991;51.374;11.586;2022-08-25T09:21:21;458.10;;;376.13;;
47251;SDS011;32991;51.374;11.586;2022-08-25T09:26:55;448.15;;;400.33;;
47251;SDS011;32991;51.374;11.586;2022-08-25T09:32:22;439.45;;;393.88;;
47251;SDS011;32991;51.374;11.586;2022-08-25T09:34:57;442.80;;;396.33;;
47251;SDS011;32991;51.374;11.586;2022-08-25T09:37:26;437.40;;;381.65;;
47251;SDS011;32991;51.374;11.586;2022-08-25T09:39:53;457.83;;;397.88;;
47251;SDS011;32991;51.374;11.586;2022-08-25T09:42:22;477.63;;;399.38;;
47251;SDS011;32991;51.374;11.586;2022-08-25T09:45:15;480.20;;;404.88;;
47251;SDS011;32991;51.374;11.586;2022-08-25T09:48:02;501.23;;;414.65;;
47251;SDS011;32991;51.374;11.586;2022-08-25T09:50:48;486.50;;;432.90;;
47251;SDS011;32991;51.374;11.586;2022-08-25T09:53:20;489.25;;;419.27;;
47251;SDS011;32991;51.374;11.586;2022-08-25T09:55:51;504.92;;;439.98;;
47251;SDS011;32991;51.374;11.586;2022-08-25T09:58:30;534.47;;;462.17;;
47251;SDS011;32991;51.374;11.586;2022-08-25T10:03:54;567.60;;;463.30;;
47251;SDS011;32991;51.374;11.586;2022-08-25T10:06:28;547.63;;;434.20;;
47251;SDS011;32991;51.374;11.586;2022-08-25T10:09:04;512.42;;;423.45;;
47251;SDS011;32991;51.374;11.586;2022-08-25T10:11:40;490.02;;;435.05;;
47251;SDS011;32991;51.374;11.586;2022-08-25T10:16:51;468.98;;;416.52;;
47251;SDS011;32991;51.374;11.586;2022-08-25T10:22:02;429.25;;;382.52;;
47251;SDS011;32991;51.374;11.586;2022-08-25T10:24:33;450.67;;;402.10;;
47251;SDS011;32991;51.374;11.586;2022-08-25T10:29:56;419.33;;;374.85;;
47251;SDS011;32991;51.374;11.586;2022-08-25T10:32:40;381.90;;;343.10;;
47251;SDS011;32991;51.374;11.586;2022-08-25T10:35:23;432.83;;;386.83;;
47251;SDS011;32991;51.374;11.586;2022-08-25T10:38:12;405.42;;;361.38;;
47251;SDS011;32991;51.374;11.586;2022-08-25T10:41:23;422.08;;;375.92;;
47251;SDS011;32991;51.374;11.586;2022-08-25T10:44:14;464.45;;;414.38;;
47251;SDS011;32991;51.374;11.586;2022-08-25T10:47:11;452.25;;;402.98;;
47251;SDS011;32991;51.374;11.586;2022-08-25T10:50:09;465.85;;;416.20;;
47251;SDS011;32991;51.374;11.586;2022-08-25T10:52:55;474.95;;;424.85;;
47251;SDS011;32991;51.374;11.586;2022-08-25T10:55:48;474.20;;;404.70;;
47251;SDS011;32991;51.374;11.586;2022-08-25T10:58:50;475.80;;;417.55;;
47251;SDS011;32991;51.374;11.586;2022-08-25T11:01:26;471.65;;;420.02;;
47251;SDS011;32991;51.374;11.586;2022-08-25T11:04:05;496.83;;;435.25;;
47251;SDS011;32991;51.374;11.586;2022-08-25T11:06:39;452.73;;;404.55;;
47251;SDS011;32991;51.374;11.586;2022-08-25T11:09:33;421.80;;;376.63;;
47251;SDS011;32991;51.374;11.586;2022-08-25T11:12:24;412.88;;;363.67;;
47251;SDS011;32991;51.374;11.586;2022-08-25T11:18:06;397.33;;;355.58;;
47251;SDS011;32991;51.374;11.586;2022-08-25T11:21:02;386.50;;;346.02;;
47251;SDS011;32991;51.374;11.586;2022-08-25T11:26:10;380.20;;;342.20;;
47251;SDS011;32991;51.374;11.586;2022-08-25T11:31:37;376.25;;;337.77;;
47251;SDS011;32991;51.374;11.586;2022-08-25T11:34:08;404.92;;;362.75;;
47251;SDS011;32991;51.374;11.586;2022-08-25T11:36:41;360.75;;;325.45;;
47251;SDS011;32991;51.374;11.586;2022-08-25T11:45:14;367.65;;;330.35;;
47251;SDS011;32991;51.374;11.586;2022-08-25T11:48:17;354.27;;;318.80;;
47251;SDS011;32991;51.374;11.586;2022-08-25T11:51:10;336.63;;;304.73;;
47251;SDS011;32991;51.374;11.586;2022-08-25T11:54:06;365.00;;;330.65;;
47251;SDS011;32991;51.374;11.586;2022-08-25T11:56:41;341.98;;;307.15;;
47251;SDS011;32991;51.374;11.586;2022-08-25T11:59:38;298.17;;;269.67;;
47251;SDS011;32991;51.374;11.586;2022-08-25T12:08:49;305.45;;;278.38;;
47251;SDS011;32991;51.374;11.586;2022-08-25T12:14:14;253.35;;;231.32;;
47251;SDS011;32991;51.374;11.586;2022-08-25T12:24:44;291.73;;;265.70;;
47251;SDS011;32991;51.374;11.586;2022-08-25T12:27:30;297.10;;;268.90;;
47251;SDS011;32991;51.374;11.586;2022-08-25T12:30:10;304.02;;;273.73;;
47251;SDS011;32991;51.374;11.586;2022-08-25T12:33:09;315.15;;;286.08;;
47251;SDS011;32991;51.374;11.586;2022-08-25T12:35:58;315.92;;;287.65;;
47251;SDS011;32991;51.374;11.586;2022-08-25T12:38:28;387.48;;;350.17;;
47251;SDS011;32991;51.374;11.586;2022-08-25T12:41:12;393.65;;;351.83;;
47251;SDS011;32991;51.374;11.586;2022-08-25T12:43:45;368.70;;;330.50;;
47251;SDS011;32991;51.374;11.586;2022-08-25T12:51:50;375.35;;;335.30;;
47251;SDS011;32991;51.374;11.586;2022-08-25T12:54:21;360.27;;;323.40;;
47251;SDS011;32991;51.374;11.586;2022-08-25T12:59:56;424.60;;;380.38;;
47251;SDS011;32991;51.374;11.586;2022-08-25T13:08:09;449.77;;;403.05;;
47251;SDS011;32991;51.374;11.586;2022-08-25T13:11:12;425.67;;;356.45;;
47251;SDS011;32991;51.374;11.586;2022-08-25T13:13:50;451.48;;;402.48;;
47251;SDS011;32991;51.374;11.586;2022-08-25T13:19:17;454.70;;;398.70;;
47251;SDS011;32991;51.374;11.586;2022-08-25T13:21:47;435.33;;;388.55;;
47251;SDS011;32991;51.374;11.586;2022-08-25T13:26:48;427.15;;;382.73;;
47251;SDS011;32991;51.374;11.586;2022-08-25T13:29:23;390.20;;;349.85;;
47251;SDS011;32991;51.374;11.586;2022-08-25T13:34:27;362.77;;;326.20;;
47251;SDS011;32991;51.374;11.586;2022-08-25T13:37:07;351.15;;;315.70;;
47251;SDS011;32991;51.374;11.586;2022-08-25T13:42:44;336.70;;;305.73;;
47251;SDS011;32991;51.374;11.586;2022-08-25T13:45:22;326.23;;;296.63;;
47251;SDS011;32991;51.374;11.586;2022-08-25T13:47:51;341.30;;;307.77;;
47251;SDS011;32991;51.374;11.586;2022-08-25T13:52:53;367.73;;;329.45;;
47251;SDS011;32991;51.374;11.586;2022-08-25T13:55:23;360.00;;;322.80;;
47251;SDS011;32991;51.374;11.586;2022-08-25T13:57:53;351.27;;;313.98;;
47251;SDS011;32991;51.374;11.586;2022-08-25T14:00:29;402.70;;;363.75;;
47251;SDS011;32991;51.374;11.586;2022-08-25T14:03:00;380.30;;;341.38;;
47251;SDS011;32991;51.374;11.586;2022-08-25T14:05:39;398.42;;;356.85;;
47251;SDS011;32991;51.374;11.586;2022-08-25T14:08:25;387.55;;;349.60;;
47251;SDS011;32991;51.374;11.586;2022-08-25T14:11:08;407.05;;;363.38;;
47251;SDS011;32991;51.374;11.586;2022-08-25T14:13:43;384.73;;;342.88;;
47251;SDS011;32991;51.374;11.586;2022-08-25T14:16:17;384.85;;;344.48;;
47251;SDS011;32991;51.374;11.586;2022-08-25T14:18:51;390.60;;;347.88;;
47251;SDS011;32991;51.374;11.586;2022-08-25T14:21:25;384.08;;;337.75;;
47251;SDS011;32991;51.374;11.586;2022-08-25T14:23:54;389.33;;;347.45;;
47251;SDS011;32991;51.374;11.586;2022-08-25T14:26:22;436.05;;;388.95;;
47251;SDS011;32991;51.374;11.586;2022-08-25T14:28:51;446.45;;;399.77;;
47251;SDS011;32991;51.374;11.586;2022-08-25T14:33:51;429.02;;;383.30;;
47251;SDS011;32991;51.374;11.586;2022-08-25T14:36:21;449.73;;;389.45;;
47251;SDS011;32991;51.374;11.586;2022-08-25T14:38:48;459.98;;;398.88;;
47251;SDS011;32991;51.374;11.586;2022-08-25T14:41:20;434.30;;;387.40;;
47251;SDS011;32991;51.374;11.586;2022-08-25T14:43:49;434.05;;;386.15;;
47251;SDS011;32991;51.374;11.586;2022-08-25T14:46:17;397.98;;;346.33;;
47251;SDS011;32991;51.374;11.586;2022-08-25T14:48:48;412.60;;;370.10;;
47251;SDS011;32991;51.374;11.586;2022-08-25T14:51:20;377.75;;;338.25;;
47251;SDS011;32991;51.374;11.586;2022-08-25T14:53:50;384.17;;;342.83;;
47251;SDS011;32991;51.374;11.586;2022-08-25T14:56:19;381.98;;;340.27;;
47251;SDS011;32991;51.374;11.586;2022-08-25T14:58:45;360.70;;;320.23;;
47251;SDS011;32991;51.374;11.586;2022-08-25T15:01:20;394.90;;;353.45;;
47251;SDS011;32991;51.374;11.586;2022-08-25T15:04:08;384.65;;;345.38;;
47251;SDS011;32991;51.374;11.586;2022-08-25T15:06:41;388.40;;;337.00;;
47251;SDS011;32991;51.374;11.586;2022-08-25T15:09:10;440.90;;;383.48;;
47251;SDS011;32991;51.374;11.586;2022-08-25T15:11:39;431.80;;;384.58;;
47251;SDS011;32991;51.374;11.586;2022-08-25T15:14:09;478.38;;;408.50;;
47251;SDS011;32991;51.374;11.586;2022-08-25T15:16:38;489.52;;;420.20;;
47251;SDS011;32991;51.374;11.586;2022-08-25T15:19:09;485.33;;;398.67;;
47251;SDS011;32991;51.374;11.586;2022-08-25T15:21:41;488.02;;;400.98;;
47251;SDS011;32991;51.374;11.586;2022-08-25T15:24:10;481.20;;;423.27;;
47251;SDS011;32991;51.374;11.586;2022-08-25T15:26:44;517.08;;;423.17;;
47251;SDS011;32991;51.374;11.586;2022-08-25T15:29:21;532.58;;;424.90;;
47251;SDS011;32991;51.374;11.586;2022-08-25T15:31:49;491.73;;;434.77;;
47251;SDS011;32991;51.374;11.586;2022-08-25T15:34:16;531.85;;;410.60;;
47251;SDS011;32991;51.374;11.586;2022-08-25T15:36:43;543.90;;;430.00;;
47251;SDS011;32991;51.374;11.586;2022-08-25T15:39:10;517.13;;;435.33;;
47251;SDS011;32991;51.374;11.586;2022-08-25T15:41:38;551.28;;;425.02;;
47251;SDS011;32991;51.374;11.586;2022-08-25T15:44:07;535.13;;;420.90;;
47251;SDS011;32991;51.374;11.586;2022-08-25T15:46:38;535.70;;;432.73;;
47251;SDS011;32991;51.374;11.586;2022-08-25T15:49:10;516.17;;;438.33;;
47251;SDS011;32991;51.374;11.586;2022-08-25T15:51:37;527.40;;;419.95;;
47251;SDS011;32991;51.374;11.586;2022-08-25T15:54:04;527.72;;;430.23;;
47251;SDS011;32991;51.374;11.586;2022-08-25T15:56:31;541.97;;;458.55;;